CheckWX is a tool to help pilots better visualize weather data.  It is not intended as a substitute for an official pre-flight weather briefing.

10:25:02 UTC

KAFW METAR
Fort Worth Alliance Airport
Fort Worth, Texas, USA
Current

32 mins ago

KAFW 260953Z 34005KT 9SM CLR 09/06 A3029 RMK AO2 SLP255 T00940061
Observed
Mar-26 @ 09:53 UTC
Wind
  • 340° at 5 KTS
Visibility
9 SM
Flight Rules
VFR
Cloud Levels
  • Clear skies
Temperature
C / 48°F
Dewpoint
C / 43°F
Humidity
82%
Altimeter
30.29" Hg
Pressure
1025.5 hPa
Previous

32 mins ago

KAFW 260953Z COR 34005KT 10SM CLR 09/06 A3029 RMK AO2 SLP255 T00940061
Observed
Mar-26 @ 09:53 UTC
Wind
  • 340° at 5 KTS
Visibility
10 SM
Flight Rules
VFR
Cloud Levels
  • Clear skies
Temperature
C / 48°F
Dewpoint
C / 43°F
Humidity
82%
Altimeter
30.29" Hg
Pressure
1025.5 hPa
Previous

2 hours ago

KAFW 260853Z 36006KT 10SM CLR 10/07 A3030 RMK AO2 SLP255 T01000067 50003
Observed
Mar-26 @ 08:53 UTC
Wind
  • 360° at 6 KTS
Visibility
10 SM
Flight Rules
VFR
Cloud Levels
  • Clear skies
Temperature
10°C / 50°F
Dewpoint
C / 45°F
Humidity
82%
Altimeter
30.3" Hg
Pressure
1025.5 hPa